sensor_id;sensor_type;location;lat;lon;timestamp;P1;durP1;ratioP1;P2;durP2;ratioP2
71572;SDS011;59408;51.032;9.410;2023-06-14T00:00:11;7.47;;;3.95;;
71572;SDS011;59408;51.032;9.410;2023-06-14T00:02:39;8.77;;;4.20;;
71572;SDS011;59408;51.032;9.410;2023-06-14T00:05:06;8.85;;;4.00;;
71572;SDS011;59408;51.032;9.410;2023-06-14T00:07:34;9.48;;;3.72;;
71572;SDS011;59408;51.032;9.410;2023-06-14T00:10:01;9.87;;;3.70;;
71572;SDS011;59408;51.032;9.410;2023-06-14T00:12:28;7.35;;;3.90;;
71572;SDS011;59408;51.032;9.410;2023-06-14T00:14:56;7.93;;;3.40;;
71572;SDS011;59408;51.032;9.410;2023-06-14T00:17:23;8.38;;;3.70;;
71572;SDS011;59408;51.032;9.410;2023-06-14T00:19:50;7.72;;;3.63;;
71572;SDS011;59408;51.032;9.410;2023-06-14T00:22:16;7.15;;;3.70;;
71572;SDS011;59408;51.032;9.410;2023-06-14T00:24:43;7.53;;;3.70;;
71572;SDS011;59408;51.032;9.410;2023-06-14T00:27:09;8.47;;;4.20;;
71572;SDS011;59408;51.032;9.410;2023-06-14T00:29:36;9.15;;;3.88;;
71572;SDS011;59408;51.032;9.410;2023-06-14T00:32:04;9.40;;;3.90;;
71572;SDS011;59408;51.032;9.410;2023-06-14T00:34:31;9.57;;;3.72;;
71572;SDS011;59408;51.032;9.410;2023-06-14T00:36:58;6.93;;;3.90;;
71572;SDS011;59408;51.032;9.410;2023-06-14T00:39:25;8.80;;;3.50;;
71572;SDS011;59408;51.032;9.410;2023-06-14T00:41:52;7.40;;;3.30;;
71572;SDS011;59408;51.032;9.410;2023-06-14T00:44:18;7.65;;;4.03;;
71572;SDS011;59408;51.032;9.410;2023-06-14T00:46:45;9.35;;;3.70;;
71572;SDS011;59408;51.032;9.410;2023-06-14T00:49:13;7.65;;;3.35;;
71572;SDS011;59408;51.032;9.410;2023-06-14T00:51:41;8.93;;;3.80;;
71572;SDS011;59408;51.032;9.410;2023-06-14T00:54:08;7.43;;;3.55;;
71572;SDS011;59408;51.032;9.410;2023-06-14T00:56:35;7.50;;;3.83;;
71572;SDS011;59408;51.032;9.410;2023-06-14T00:59:02;6.77;;;3.57;;
71572;SDS011;59408;51.032;9.410;2023-06-14T01:01:29;9.95;;;3.72;;
71572;SDS011;59408;51.032;9.410;2023-06-14T01:03:56;8.57;;;4.00;;
71572;SDS011;59408;51.032;9.410;2023-06-14T01:06:27;8.00;;;3.60;;
71572;SDS011;59408;51.032;9.410;2023-06-14T01:09:02;7.43;;;3.80;;
71572;SDS011;59408;51.032;9.410;2023-06-14T01:11:38;8.63;;;3.70;;
71572;SDS011;59408;51.032;9.410;2023-06-14T01:14:13;10.17;;;4.30;;
71572;SDS011;59408;51.032;9.410;2023-06-14T01:16:41;7.25;;;3.30;;
71572;SDS011;59408;51.032;9.410;2023-06-14T01:19:09;8.13;;;3.80;;
71572;SDS011;59408;51.032;9.410;2023-06-14T01:21:39;7.55;;;3.97;;
71572;SDS011;59408;51.032;9.410;2023-06-14T01:24:07;8.82;;;3.42;;
71572;SDS011;59408;51.032;9.410;2023-06-14T01:26:34;8.30;;;3.70;;
71572;SDS011;59408;51.032;9.410;2023-06-14T01:29:02;8.73;;;3.60;;
71572;SDS011;59408;51.032;9.410;2023-06-14T01:31:28;7.53;;;3.45;;
71572;SDS011;59408;51.032;9.410;2023-06-14T01:33:55;7.80;;;3.58;;
71572;SDS011;59408;51.032;9.410;2023-06-14T01:36:22;7.53;;;3.28;;
71572;SDS011;59408;51.032;9.410;2023-06-14T01:38:52;8.10;;;3.28;;
71572;SDS011;59408;51.032;9.410;2023-06-14T01:41:21;9.52;;;4.03;;
71572;SDS011;59408;51.032;9.410;2023-06-14T01:43:48;9.03;;;3.60;;
71572;SDS011;59408;51.032;9.410;2023-06-14T01:46:16;6.40;;;3.20;;
71572;SDS011;59408;51.032;9.410;2023-06-14T01:48:43;7.70;;;3.50;;
71572;SDS011;59408;51.032;9.410;2023-06-14T01:51:10;8.02;;;3.22;;
71572;SDS011;59408;51.032;9.410;2023-06-14T01:53:37;6.07;;;3.10;;
71572;SDS011;59408;51.032;9.410;2023-06-14T01:56:04;7.23;;;3.50;;
71572;SDS011;59408;51.032;9.410;2023-06-14T01:58:32;7.30;;;3.43;;
71572;SDS011;59408;51.032;9.410;2023-06-14T02:00:58;7.88;;;3.88;;
71572;SDS011;59408;51.032;9.410;2023-06-14T02:03:25;9.30;;;4.57;;
71572;SDS011;59408;51.032;9.410;2023-06-14T02:05:52;8.25;;;4.18;;
71572;SDS011;59408;51.032;9.410;2023-06-14T02:08:18;8.85;;;3.90;;
71572;SDS011;59408;51.032;9.410;2023-06-14T02:10:45;6.83;;;3.50;;
71572;SDS011;59408;51.032;9.410;2023-06-14T02:13:11;9.87;;;3.97;;
71572;SDS011;59408;51.032;9.410;2023-06-14T02:15:39;7.25;;;3.60;;
71572;SDS011;59408;51.032;9.410;2023-06-14T02:18:06;8.32;;;4.22;;
71572;SDS011;59408;51.032;9.410;2023-06-14T02:20:33;8.35;;;3.88;;
71572;SDS011;59408;51.032;9.410;2023-06-14T02:22:59;9.75;;;3.85;;
71572;SDS011;59408;51.032;9.410;2023-06-14T02:25:26;7.57;;;3.97;;
71572;SDS011;59408;51.032;9.410;2023-06-14T02:27:52;6.83;;;3.77;;
71572;SDS011;59408;51.032;9.410;2023-06-14T02:30:19;12.23;;;3.72;;
71572;SDS011;59408;51.032;9.410;2023-06-14T02:32:47;8.23;;;4.40;;
71572;SDS011;59408;51.032;9.410;2023-06-14T02:35:14;7.13;;;3.78;;
71572;SDS011;59408;51.032;9.410;2023-06-14T02:37:40;7.45;;;4.10;;
71572;SDS011;59408;51.032;9.410;2023-06-14T02:40:07;7.60;;;4.10;;
71572;SDS011;59408;51.032;9.410;2023-06-14T02:42:34;9.00;;;3.60;;
71572;SDS011;59408;51.032;9.410;2023-06-14T02:45:01;7.22;;;4.10;;
71572;SDS011;59408;51.032;9.410;2023-06-14T02:47:27;7.97;;;3.90;;
71572;SDS011;59408;51.032;9.410;2023-06-14T02:49:55;8.20;;;4.22;;
71572;SDS011;59408;51.032;9.410;2023-06-14T02:52:22;8.63;;;4.05;;
71572;SDS011;59408;51.032;9.410;2023-06-14T02:54:48;7.82;;;3.90;;
71572;SDS011;59408;51.032;9.410;2023-06-14T02:57:15;11.45;;;4.10;;
71572;SDS011;59408;51.032;9.410;2023-06-14T02:59:41;7.73;;;3.67;;
71572;SDS011;59408;51.032;9.410;2023-06-14T03:02:08;7.80;;;3.40;;
71572;SDS011;59408;51.032;9.410;2023-06-14T03:04:35;6.43;;;3.38;;
71572;SDS011;59408;51.032;9.410;2023-06-14T03:07:03;6.38;;;3.00;;
71572;SDS011;59408;51.032;9.410;2023-06-14T03:09:30;7.13;;;3.30;;
71572;SDS011;59408;51.032;9.410;2023-06-14T03:11:57;8.85;;;3.47;;
71572;SDS011;59408;51.032;9.410;2023-06-14T03:14:23;7.30;;;3.15;;
71572;SDS011;59408;51.032;9.410;2023-06-14T03:16:50;7.00;;;2.97;;
71572;SDS011;59408;51.032;9.410;2023-06-14T03:19:16;7.30;;;2.83;;
71572;SDS011;59408;51.032;9.410;2023-06-14T03:21:43;7.80;;;3.47;;
71572;SDS011;59408;51.032;9.410;2023-06-14T03:24:11;7.97;;;3.30;;
71572;SDS011;59408;51.032;9.410;2023-06-14T03:26:38;8.80;;;3.92;;
71572;SDS011;59408;51.032;9.410;2023-06-14T03:29:04;7.60;;;3.63;;
71572;SDS011;59408;51.032;9.410;2023-06-14T03:31:31;8.02;;;3.90;;
71572;SDS011;59408;51.032;9.410;2023-06-14T03:33:57;7.57;;;3.83;;
71572;SDS011;59408;51.032;9.410;2023-06-14T03:36:24;8.00;;;4.03;;
71572;SDS011;59408;51.032;9.410;2023-06-14T03:38:51;9.05;;;3.65;;
71572;SDS011;59408;51.032;9.410;2023-06-14T03:41:19;7.78;;;3.78;;
71572;SDS011;59408;51.032;9.410;2023-06-14T03:43:45;8.73;;;3.88;;
71572;SDS011;59408;51.032;9.410;2023-06-14T03:46:12;8.65;;;4.20;;
71572;SDS011;59408;51.032;9.410;2023-06-14T03:48:39;9.47;;;4.10;;
71572;SDS011;59408;51.032;9.410;2023-06-14T03:51:05;8.07;;;3.83;;
71572;SDS011;59408;51.032;9.410;2023-06-14T03:53:32;7.85;;;3.83;;
71572;SDS011;59408;51.032;9.410;2023-06-14T03:55:58;7.75;;;3.92;;
71572;SDS011;59408;51.032;9.410;2023-06-14T03:58:26;6.35;;;3.60;;
71572;SDS011;59408;51.032;9.410;2023-06-14T04:00:53;8.52;;;3.90;;
71572;SDS011;59408;51.032;9.410;2023-06-14T04:03:19;9.73;;;4.10;;
71572;SDS011;59408;51.032;9.410;2023-06-14T04:05:46;10.17;;;4.30;;
71572;SDS011;59408;51.032;9.410;2023-06-14T04:08:13;7.88;;;4.18;;
71572;SDS011;59408;51.032;9.410;2023-06-14T04:10:39;9.88;;;4.40;;
71572;SDS011;59408;51.032;9.410;2023-06-14T04:13:06;7.90;;;4.05;;
71572;SDS011;59408;51.032;9.410;2023-06-14T04:15:34;7.97;;;3.95;;
71572;SDS011;59408;51.032;9.410;2023-06-14T04:18:00;7.83;;;4.07;;
71572;SDS011;59408;51.032;9.410;2023-06-14T04:20:27;7.33;;;4.03;;
71572;SDS011;59408;51.032;9.410;2023-06-14T04:22:56;7.93;;;4.10;;
71572;SDS011;59408;51.032;9.410;2023-06-14T04:25:23;8.32;;;4.38;;
71572;SDS011;59408;51.032;9.410;2023-06-14T04:27:49;9.40;;;3.97;;
71572;SDS011;59408;51.032;9.410;2023-06-14T04:30:16;11.18;;;4.40;;
71572;SDS011;59408;51.032;9.410;2023-06-14T04:32:44;7.43;;;3.70;;
71572;SDS011;59408;51.032;9.410;2023-06-14T04:35:11;7.10;;;3.57;;
71572;SDS011;59408;51.032;9.410;2023-06-14T04:37:40;8.20;;;3.70;;
71572;SDS011;59408;51.032;9.410;2023-06-14T04:40:07;7.53;;;3.67;;
71572;SDS011;59408;51.032;9.410;2023-06-14T04:42:37;6.82;;;3.38;;
71572;SDS011;59408;51.032;9.410;2023-06-14T04:45:04;6.95;;;3.58;;
71572;SDS011;59408;51.032;9.410;2023-06-14T04:47:32;6.70;;;3.37;;
71572;SDS011;59408;51.032;9.410;2023-06-14T04:50:00;7.50;;;3.07;;
71572;SDS011;59408;51.032;9.410;2023-06-14T04:52:27;7.25;;;3.10;;
71572;SDS011;59408;51.032;9.410;2023-06-14T04:54:53;7.45;;;3.50;;
71572;SDS011;59408;51.032;9.410;2023-06-14T04:57:20;7.40;;;3.00;;
71572;SDS011;59408;51.032;9.410;2023-06-14T04:59:46;7.78;;;3.47;;
71572;SDS011;59408;51.032;9.410;2023-06-14T05:02:13;7.83;;;3.07;;
71572;SDS011;59408;51.032;9.410;2023-06-14T05:04:40;6.10;;;3.20;;
71572;SDS011;59408;51.032;9.410;2023-06-14T05:07:08;7.60;;;3.42;;
71572;SDS011;59408;51.032;9.410;2023-06-14T05:09:35;8.52;;;3.10;;
71572;SDS011;59408;51.032;9.410;2023-06-14T05:12:02;5.57;;;2.70;;
71572;SDS011;59408;51.032;9.410;2023-06-14T05:14:30;5.53;;;2.80;;
71572;SDS011;59408;51.032;9.410;2023-06-14T05:16:56;8.32;;;2.85;;
71572;SDS011;59408;51.032;9.410;2023-06-14T05:19:23;7.80;;;3.10;;
71572;SDS011;59408;51.032;9.410;2023-06-14T05:21:49;7.30;;;3.10;;
71572;SDS011;59408;51.032;9.410;2023-06-14T05:24:17;6.82;;;2.95;;
71572;SDS011;59408;51.032;9.410;2023-06-14T05:26:44;6.93;;;3.00;;
71572;SDS011;59408;51.032;9.410;2023-06-14T05:29:11;6.32;;;3.20;;
71572;SDS011;59408;51.032;9.410;2023-06-14T05:31:37;7.25;;;3.20;;
71572;SDS011;59408;51.032;9.410;2023-06-14T05:34:04;6.15;;;3.30;;
71572;SDS011;59408;51.032;9.410;2023-06-14T05:36:31;6.97;;;2.87;;
71572;SDS011;59408;51.032;9.410;2023-06-14T05:38:57;7.03;;;2.85;;
71572;SDS011;59408;51.032;9.410;2023-06-14T05:41:25;5.60;;;2.55;;
71572;SDS011;59408;51.032;9.410;2023-06-14T05:43:53;6.03;;;2.72;;
71572;SDS011;59408;51.032;9.410;2023-06-14T05:46:20;6.15;;;2.78;;
71572;SDS011;59408;51.032;9.410;2023-06-14T05:48:47;6.05;;;2.65;;
71572;SDS011;59408;51.032;9.410;2023-06-14T05:51:13;5.47;;;2.70;;
71572;SDS011;59408;51.032;9.410;2023-06-14T05:53:40;6.22;;;2.78;;
71572;SDS011;59408;51.032;9.410;2023-06-14T05:56:07;6.18;;;2.90;;
71572;SDS011;59408;51.032;9.410;2023-06-14T05:58:35;6.43;;;2.85;;
71572;SDS011;59408;51.032;9.410;2023-06-14T06:01:01;6.70;;;3.13;;
71572;SDS011;59408;51.032;9.410;2023-06-14T06:03:28;8.17;;;3.20;;
71572;SDS011;59408;51.032;9.410;2023-06-14T06:05:55;5.97;;;2.80;;
71572;SDS011;59408;51.032;9.410;2023-06-14T06:08:21;5.75;;;2.72;;
71572;SDS011;59408;51.032;9.410;2023-06-14T06:10:48;6.55;;;3.08;;
71572;SDS011;59408;51.032;9.410;2023-06-14T06:13:15;6.25;;;3.40;;
71572;SDS011;59408;51.032;9.410;2023-06-14T06:15:43;6.38;;;3.40;;
71572;SDS011;59408;51.032;9.410;2023-06-14T06:18:10;11.67;;;3.50;;
71572;SDS011;59408;51.032;9.410;2023-06-14T06:20:36;6.37;;;3.30;;
71572;SDS011;59408;51.032;9.410;2023-06-14T06:23:03;6.55;;;3.38;;
71572;SDS011;59408;51.032;9.410;2023-06-14T06:25:29;6.43;;;3.30;;
71572;SDS011;59408;51.032;9.410;2023-06-14T06:27:56;7.15;;;3.03;;
71572;SDS011;59408;51.032;9.410;2023-06-14T06:30:23;6.75;;;3.22;;
71572;SDS011;59408;51.032;9.410;2023-06-14T06:32:51;6.97;;;3.20;;
71572;SDS011;59408;51.032;9.410;2023-06-14T06:35:18;7.40;;;2.93;;
71572;SDS011;59408;51.032;9.410;2023-06-14T06:37:45;8.38;;;3.50;;
71572;SDS011;59408;51.032;9.410;2023-06-14T06:40:11;6.65;;;3.42;;
71572;SDS011;59408;51.032;9.410;2023-06-14T06:42:38;8.43;;;3.50;;
71572;SDS011;59408;51.032;9.410;2023-06-14T06:45:05;6.78;;;3.33;;
71572;SDS011;59408;51.032;9.410;2023-06-14T06:47:32;7.43;;;3.33;;
71572;SDS011;59408;51.032;9.410;2023-06-14T06:50:00;8.27;;;3.33;;
71572;SDS011;59408;51.032;9.410;2023-06-14T06:52:27;6.82;;;3.20;;
71572;SDS011;59408;51.032;9.410;2023-06-14T06:54:53;6.55;;;3.22;;
71572;SDS011;59408;51.032;9.410;2023-06-14T06:57:20;6.68;;;3.55;;
71572;SDS011;59408;51.032;9.410;2023-06-14T06:59:46;6.20;;;3.65;;
71572;SDS011;59408;51.032;9.410;2023-06-14T07:02:13;6.20;;;3.03;;
71572;SDS011;59408;51.032;9.410;2023-06-14T07:04:40;8.00;;;3.47;;
71572;SDS011;59408;51.032;9.410;2023-06-14T07:07:08;9.98;;;3.53;;
71572;SDS011;59408;51.032;9.410;2023-06-14T07:09:34;9.43;;;3.70;;
71572;SDS011;59408;51.032;9.410;2023-06-14T07:12:01;7.22;;;3.70;;
71572;SDS011;59408;51.032;9.410;2023-06-14T07:14:28;7.15;;;3.47;;
71572;SDS011;59408;51.032;9.410;2023-06-14T07:16:55;7.03;;;3.40;;
71572;SDS011;59408;51.032;9.410;2023-06-14T07:19:21;7.03;;;3.57;;
71572;SDS011;59408;51.032;9.410;2023-06-14T07:21:48;8.23;;;3.70;;
71572;SDS011;59408;51.032;9.410;2023-06-14T07:24:16;7.82;;;3.67;;
71572;SDS011;59408;51.032;9.410;2023-06-14T07:26:43;7.90;;;3.70;;
71572;SDS011;59408;51.032;9.410;2023-06-14T07:29:09;9.07;;;3.60;;
71572;SDS011;59408;51.032;9.410;2023-06-14T07:31:36;7.27;;;3.20;;
71572;SDS011;59408;51.032;9.410;2023-06-14T07:34:02;8.07;;;3.47;;
71572;SDS011;59408;51.032;9.410;2023-06-14T07:36:29;6.47;;;3.63;;
71572;SDS011;59408;51.032;9.410;2023-06-14T07:38:56;6.85;;;3.95;;
71572;SDS011;59408;51.032;9.410;2023-06-14T07:41:23;7.32;;;3.70;;
71572;SDS011;59408;51.032;9.410;2023-06-14T07:43:50;7.90;;;3.70;;
71572;SDS011;59408;51.032;9.410;2023-06-14T07:46:17;7.53;;;3.60;;
71572;SDS011;59408;51.032;9.410;2023-06-14T07:48:44;6.68;;;3.72;;
71572;SDS011;59408;51.032;9.410;2023-06-14T07:51:11;6.97;;;4.05;;
71572;SDS011;59408;51.032;9.410;2023-06-14T07:53:37;7.25;;;3.40;;
71572;SDS011;59408;51.032;9.410;2023-06-14T07:56:04;6.72;;;3.92;;
71572;SDS011;59408;51.032;9.410;2023-06-14T07:58:32;7.73;;;3.40;;
71572;SDS011;59408;51.032;9.410;2023-06-14T08:00:58;6.83;;;3.40;;
71572;SDS011;59408;51.032;9.410;2023-06-14T08:03:25;8.18;;;3.60;;
71572;SDS011;59408;51.032;9.410;2023-06-14T08:05:52;8.50;;;3.47;;
71572;SDS011;59408;51.032;9.410;2023-06-14T08:08:19;9.00;;;3.72;;
71572;SDS011;59408;51.032;9.410;2023-06-14T08:10:45;7.78;;;3.70;;
71572;SDS011;59408;51.032;9.410;2023-06-14T08:13:12;8.80;;;3.77;;
71572;SDS011;59408;51.032;9.410;2023-06-14T08:15:40;5.90;;;3.00;;
71572;SDS011;59408;51.032;9.410;2023-06-14T08:18:06;7.82;;;3.22;;
71572;SDS011;59408;51.032;9.410;2023-06-14T08:20:33;7.03;;;3.50;;
71572;SDS011;59408;51.032;9.410;2023-06-14T08:22:59;7.68;;;3.40;;
71572;SDS011;59408;51.032;9.410;2023-06-14T08:25:26;6.72;;;3.40;;
71572;SDS011;59408;51.032;9.410;2023-06-14T08:27:52;9.23;;;3.20;;
71572;SDS011;59408;51.032;9.410;2023-06-14T08:30:19;6.13;;;3.10;;
71572;SDS011;59408;51.032;9.410;2023-06-14T08:32:47;5.75;;;3.22;;
71572;SDS011;59408;51.032;9.410;2023-06-14T08:35:27;6.85;;;3.20;;
71572;SDS011;59408;51.032;9.410;2023-06-14T08:37:54;7.05;;;3.00;;
71572;SDS011;59408;51.032;9.410;2023-06-14T08:40:21;6.95;;;3.20;;
71572;SDS011;59408;51.032;9.410;2023-06-14T08:42:50;9.07;;;3.83;;
71572;SDS011;59408;51.032;9.410;2023-06-14T08:45:18;7.95;;;3.00;;
71572;SDS011;59408;51.032;9.410;2023-06-14T08:47:47;6.63;;;3.35;;
71572;SDS011;59408;51.032;9.410;2023-06-14T08:50:13;7.03;;;3.47;;
71572;SDS011;59408;51.032;9.410;2023-06-14T08:52:54;7.20;;;3.30;;
71572;SDS011;59408;51.032;9.410;2023-06-14T08:55:22;6.17;;;2.93;;
71572;SDS011;59408;51.032;9.410;2023-06-14T08:57:49;7.97;;;3.53;;
71572;SDS011;59408;51.032;9.410;2023-06-14T09:00:16;6.38;;;3.28;;
71572;SDS011;59408;51.032;9.410;2023-06-14T09:02:44;7.03;;;3.40;;
71572;SDS011;59408;51.032;9.410;2023-06-14T09:05:11;6.40;;;3.35;;
71572;SDS011;59408;51.032;9.410;2023-06-14T09:07:38;6.57;;;3.75;;
71572;SDS011;59408;51.032;9.410;2023-06-14T09:10:09;6.00;;;3.40;;
71572;SDS011;59408;51.032;9.410;2023-06-14T09:12:37;6.22;;;3.40;;
71572;SDS011;59408;51.032;9.410;2023-06-14T09:15:04;6.20;;;3.38;;
71572;SDS011;59408;51.032;9.410;2023-06-14T09:17:32;7.05;;;3.72;;
71572;SDS011;59408;51.032;9.410;2023-06-14T09:20:00;7.28;;;3.60;;
71572;SDS011;59408;51.032;9.410;2023-06-14T09:22:29;5.93;;;3.60;;
71572;SDS011;59408;51.032;9.410;2023-06-14T09:24:56;7.33;;;3.60;;
71572;SDS011;59408;51.032;9.410;2023-06-14T09:27:22;6.85;;;3.70;;
71572;SDS011;59408;51.032;9.410;2023-06-14T09:29:51;6.75;;;3.40;;
71572;SDS011;59408;51.032;9.410;2023-06-14T09:32:17;6.00;;;3.78;;
71572;SDS011;59408;51.032;9.410;2023-06-14T09:34:44;7.40;;;3.67;;
71572;SDS011;59408;51.032;9.410;2023-06-14T09:37:11;7.60;;;3.73;;
71572;SDS011;59408;51.032;9.410;2023-06-14T09:39:49;6.00;;;3.53;;
71572;SDS011;59408;51.032;9.410;2023-06-14T09:42:16;5.95;;;3.67;;
71572;SDS011;59408;51.032;9.410;2023-06-14T09:44:43;5.78;;;3.50;;
71572;SDS011;59408;51.032;9.410;2023-06-14T09:47:12;7.35;;;3.70;;
71572;SDS011;59408;51.032;9.410;2023-06-14T09:49:39;6.57;;;3.80;;
71572;SDS011;59408;51.032;9.410;2023-06-14T09:52:06;6.20;;;3.45;;
71572;SDS011;59408;51.032;9.410;2023-06-14T09:54:36;6.15;;;3.60;;
71572;SDS011;59408;51.032;9.410;2023-06-14T09:57:08;6.80;;;3.50;;
71572;SDS011;59408;51.032;9.410;2023-06-14T09:59:36;8.07;;;3.90;;
71572;SDS011;59408;51.032;9.410;2023-06-14T10:02:09;6.97;;;3.53;;
71572;SDS011;59408;51.032;9.410;2023-06-14T10:04:39;7.28;;;3.63;;
71572;SDS011;59408;51.032;9.410;2023-06-14T10:07:10;7.68;;;3.60;;
71572;SDS011;59408;51.032;9.410;2023-06-14T10:09:37;5.97;;;3.42;;
71572;SDS011;59408;51.032;9.410;2023-06-14T10:12:04;6.30;;;3.60;;
71572;SDS011;59408;51.032;9.410;2023-06-14T10:14:33;6.27;;;3.60;;
71572;SDS011;59408;51.032;9.410;2023-06-14T10:17:01;7.03;;;3.63;;
71572;SDS011;59408;51.032;9.410;2023-06-14T10:19:34;8.50;;;3.65;;
71572;SDS011;59408;51.032;9.410;2023-06-14T10:22:08;6.78;;;3.70;;
71572;SDS011;59408;51.032;9.410;2023-06-14T10:24:40;6.45;;;3.50;;
71572;SDS011;59408;51.032;9.410;2023-06-14T10:27:08;7.65;;;3.70;;
71572;SDS011;59408;51.032;9.410;2023-06-14T10:29:37;8.57;;;4.00;;
71572;SDS011;59408;51.032;9.410;2023-06-14T10:32:31;6.05;;;3.60;;
71572;SDS011;59408;51.032;9.410;2023-06-14T10:34:59;7.65;;;3.65;;
71572;SDS011;59408;51.032;9.410;2023-06-14T10:37:26;7.57;;;3.92;;
71572;SDS011;59408;51.032;9.410;2023-06-14T10:39:54;8.25;;;3.78;;
71572;SDS011;59408;51.032;9.410;2023-06-14T10:42:20;6.57;;;3.70;;
71572;SDS011;59408;51.032;9.410;2023-06-14T10:44:50;7.45;;;3.90;;
71572;SDS011;59408;51.032;9.410;2023-06-14T10:47:20;7.07;;;3.92;;
71572;SDS011;59408;51.032;9.410;2023-06-14T10:49:50;6.60;;;3.92;;
71572;SDS011;59408;51.032;9.410;2023-06-14T10:52:21;7.35;;;3.95;;
71572;SDS011;59408;51.032;9.410;2023-06-14T10:55:02;7.27;;;4.10;;
71572;SDS011;59408;51.032;9.410;2023-06-14T10:57:30;5.95;;;3.40;;
71572;SDS011;59408;51.032;9.410;2023-06-14T11:00:09;6.13;;;3.55;;
71572;SDS011;59408;51.032;9.410;2023-06-14T11:02:48;6.57;;;3.67;;
71572;SDS011;59408;51.032;9.410;2023-06-14T11:05:21;8.60;;;3.70;;
71572;SDS011;59408;51.032;9.410;2023-06-14T11:07:55;5.97;;;3.43;;
71572;SDS011;59408;51.032;9.410;2023-06-14T11:10:35;6.07;;;3.47;;
71572;SDS011;59408;51.032;9.410;2023-06-14T11:13:03;6.43;;;3.60;;
71572;SDS011;59408;51.032;9.410;2023-06-14T11:15:31;6.90;;;3.88;;
71572;SDS011;59408;51.032;9.410;2023-06-14T11:17:59;6.35;;;3.53;;
71572;SDS011;59408;51.032;9.410;2023-06-14T11:20:29;7.23;;;3.90;;
71572;SDS011;59408;51.032;9.410;2023-06-14T11:22:56;6.57;;;3.30;;
71572;SDS011;59408;51.032;9.410;2023-06-14T11:25:24;5.82;;;3.72;;
71572;SDS011;59408;51.032;9.410;2023-06-14T11:27:51;8.00;;;4.10;;
71572;SDS011;59408;51.032;9.410;2023-06-14T11:30:17;6.50;;;3.78;;
71572;SDS011;59408;51.032;9.410;2023-06-14T11:32:47;5.90;;;3.93;;
71572;SDS011;59408;51.032;9.410;2023-06-14T11:35:14;6.28;;;3.83;;
71572;SDS011;59408;51.032;9.410;2023-06-14T11:37:41;7.03;;;4.03;;
71572;SDS011;59408;51.032;9.410;2023-06-14T11:40:09;6.43;;;3.60;;
71572;SDS011;59408;51.032;9.410;2023-06-14T11:42:36;7.88;;;4.00;;
71572;SDS011;59408;51.032;9.410;2023-06-14T11:45:03;7.87;;;4.03;;
71572;SDS011;59408;51.032;9.410;2023-06-14T11:47:35;6.90;;;3.83;;
71572;SDS011;59408;51.032;9.410;2023-06-14T11:50:05;6.32;;;3.80;;
71572;SDS011;59408;51.032;9.410;2023-06-14T11:52:33;6.43;;;3.78;;
71572;SDS011;59408;51.032;9.410;2023-06-14T11:54:59;6.88;;;3.92;;
71572;SDS011;59408;51.032;9.410;2023-06-14T11:57:28;7.07;;;3.80;;
71572;SDS011;59408;51.032;9.410;2023-06-14T11:59:55;6.03;;;3.53;;
71572;SDS011;59408;51.032;9.410;2023-06-14T12:02:21;6.00;;;3.67;;
71572;SDS011;59408;51.032;9.410;2023-06-14T12:04:50;18.02;;;3.50;;
71572;SDS011;59408;51.032;9.410;2023-06-14T12:07:18;6.43;;;3.97;;
71572;SDS011;59408;51.032;9.410;2023-06-14T12:10:03;7.00;;;3.80;;
71572;SDS011;59408;51.032;9.410;2023-06-14T12:12:31;7.65;;;4.10;;
71572;SDS011;59408;51.032;9.410;2023-06-14T12:14:57;5.88;;;3.40;;
71572;SDS011;59408;51.032;9.410;2023-06-14T12:17:24;6.40;;;3.28;;
71572;SDS011;59408;51.032;9.410;2023-06-14T12:19:51;7.00;;;3.90;;
71572;SDS011;59408;51.032;9.410;2023-06-14T12:22:19;8.17;;;3.77;;
71572;SDS011;59408;51.032;9.410;2023-06-14T12:24:45;6.13;;;3.47;;
71572;SDS011;59408;51.032;9.410;2023-06-14T12:27:12;6.15;;;3.58;;
71572;SDS011;59408;51.032;9.410;2023-06-14T12:29:39;6.78;;;3.83;;
71572;SDS011;59408;51.032;9.410;2023-06-14T12:32:07;6.45;;;3.60;;
71572;SDS011;59408;51.032;9.410;2023-06-14T12:34:34;5.87;;;3.70;;
71572;SDS011;59408;51.032;9.410;2023-06-14T12:37:01;6.47;;;3.50;;
71572;SDS011;59408;51.032;9.410;2023-06-14T12:39:29;5.90;;;3.53;;
71572;SDS011;59408;51.032;9.410;2023-06-14T12:41:56;6.25;;;3.70;;
71572;SDS011;59408;51.032;9.410;2023-06-14T12:44:22;8.15;;;4.15;;
71572;SDS011;59408;51.032;9.410;2023-06-14T12:46:49;7.13;;;3.83;;
71572;SDS011;59408;51.032;9.410;2023-06-14T12:49:16;7.05;;;3.45;;
71572;SDS011;59408;51.032;9.410;2023-06-14T12:51:43;7.20;;;4.03;;
71572;SDS011;59408;51.032;9.410;2023-06-14T12:54:10;5.90;;;3.45;;
71572;SDS011;59408;51.032;9.410;2023-06-14T12:56:38;7.78;;;3.53;;
71572;SDS011;59408;51.032;9.410;2023-06-14T12:59:05;6.33;;;3.80;;
71572;SDS011;59408;51.032;9.410;2023-06-14T13:01:31;7.15;;;3.85;;
71572;SDS011;59408;51.032;9.410;2023-06-14T13:03:58;6.60;;;3.95;;
71572;SDS011;59408;51.032;9.410;2023-06-14T13:06:25;5.72;;;3.67;;
71572;SDS011;59408;51.032;9.410;2023-06-14T13:08:51;6.28;;;4.00;;
71572;SDS011;59408;51.032;9.410;2023-06-14T13:11:18;7.67;;;3.90;;
71572;SDS011;59408;51.032;9.410;2023-06-14T13:13:46;5.35;;;3.60;;
71572;SDS011;59408;51.032;9.410;2023-06-14T13:16:12;6.07;;;3.90;;
71572;SDS011;59408;51.032;9.410;2023-06-14T13:18:39;6.10;;;3.47;;
71572;SDS011;59408;51.032;9.410;2023-06-14T13:21:06;6.72;;;4.00;;
71572;SDS011;59408;51.032;9.410;2023-06-14T13:23:32;6.57;;;3.77;;
71572;SDS011;59408;51.032;9.410;2023-06-14T13:25:59;6.10;;;3.35;;
71572;SDS011;59408;51.032;9.410;2023-06-14T13:28:29;7.30;;;3.90;;
71572;SDS011;59408;51.032;9.410;2023-06-14T13:30:57;6.95;;;3.40;;
71572;SDS011;59408;51.032;9.410;2023-06-14T13:33:24;7.40;;;3.78;;
71572;SDS011;59408;51.032;9.410;2023-06-14T13:35:50;6.77;;;3.30;;
71572;SDS011;59408;51.032;9.410;2023-06-14T13:38:17;6.68;;;3.85;;
71572;SDS011;59408;51.032;9.410;2023-06-14T13:40:44;7.38;;;4.13;;
71572;SDS011;59408;51.032;9.410;2023-06-14T13:43:10;5.95;;;3.63;;
71572;SDS011;59408;51.032;9.410;2023-06-14T13:45:37;5.97;;;3.65;;
71572;SDS011;59408;51.032;9.410;2023-06-14T13:48:05;5.23;;;3.47;;
71572;SDS011;59408;51.032;9.410;2023-06-14T13:50:32;8.73;;;3.60;;
71572;SDS011;59408;51.032;9.410;2023-06-14T13:52:58;5.95;;;3.58;;
71572;SDS011;59408;51.032;9.410;2023-06-14T13:55:25;5.75;;;3.60;;
71572;SDS011;59408;51.032;9.410;2023-06-14T13:57:51;5.88;;;3.65;;
71572;SDS011;59408;51.032;9.410;2023-06-14T14:00:18;8.83;;;3.60;;
71572;SDS011;59408;51.032;9.410;2023-06-14T14:02:49;6.15;;;3.45;;
71572;SDS011;59408;51.032;9.410;2023-06-14T14:05:17;6.38;;;3.70;;
71572;SDS011;59408;51.032;9.410;2023-06-14T14:07:43;6.45;;;3.58;;
71572;SDS011;59408;51.032;9.410;2023-06-14T14:10:10;6.60;;;3.95;;
71572;SDS011;59408;51.032;9.410;2023-06-14T14:12:37;6.40;;;3.80;;
71572;SDS011;59408;51.032;9.410;2023-06-14T14:15:04;5.60;;;3.25;;
71572;SDS011;59408;51.032;9.410;2023-06-14T14:17:31;7.03;;;3.65;;
71572;SDS011;59408;51.032;9.410;2023-06-14T14:19:58;5.63;;;3.50;;
71572;SDS011;59408;51.032;9.410;2023-06-14T14:22:26;6.43;;;3.35;;
71572;SDS011;59408;51.032;9.410;2023-06-14T14:24:52;6.20;;;3.27;;
71572;SDS011;59408;51.032;9.410;2023-06-14T14:27:19;5.75;;;3.20;;
71572;SDS011;59408;51.032;9.410;2023-06-14T14:29:46;6.13;;;3.58;;
71572;SDS011;59408;51.032;9.410;2023-06-14T14:32:12;6.60;;;3.67;;
71572;SDS011;59408;51.032;9.410;2023-06-14T14:34:39;5.40;;;3.40;;
71572;SDS011;59408;51.032;9.410;2023-06-14T14:37:06;7.13;;;3.30;;
71572;SDS011;59408;51.032;9.410;2023-06-14T14:39:34;6.55;;;3.50;;
71572;SDS011;59408;51.032;9.410;2023-06-14T14:42:00;6.00;;;3.70;;
71572;SDS011;59408;51.032;9.410;2023-06-14T14:44:27;6.60;;;3.47;;
71572;SDS011;59408;51.032;9.410;2023-06-14T14:46:53;6.53;;;3.50;;
71572;SDS011;59408;51.032;9.410;2023-06-14T14:49:20;7.30;;;3.77;;